sensor_id;sensor_type;location;lat;lon;timestamp;temperature;humidity
12276;DHT22;6200;48.144;11.424;2023-09-07T00:00:48;15.80;99.90
12276;DHT22;6200;48.144;11.424;2023-09-07T00:03:14;15.70;99.90
12276;DHT22;6200;48.144;11.424;2023-09-07T00:05:40;15.70;99.90
12276;DHT22;6200;48.144;11.424;2023-09-07T00:08:06;15.60;99.90
12276;DHT22;6200;48.144;11.424;2023-09-07T00:10:32;15.60;99.90
12276;DHT22;6200;48.144;11.424;2023-09-07T00:13:01;15.60;99.90
12276;DHT22;6200;48.144;11.424;2023-09-07T00:15:28;15.60;99.90
12276;DHT22;6200;48.144;11.424;2023-09-07T00:17:53;15.50;99.90
12276;DHT22;6200;48.144;11.424;2023-09-07T00:20:19;15.50;99.90
12276;DHT22;6200;48.144;11.424;2023-09-07T00:22:46;15.50;99.90
12276;DHT22;6200;48.144;11.424;2023-09-07T00:25:12;15.40;99.90
12276;DHT22;6200;48.144;11.424;2023-09-07T00:27:39;15.40;99.90
12276;DHT22;6200;48.144;11.424;2023-09-07T00:30:05;15.30;99.90
12276;DHT22;6200;48.144;11.424;2023-09-07T00:32:32;15.30;99.90
12276;DHT22;6200;48.144;11.424;2023-09-07T00:34:58;15.30;99.90
12276;DHT22;6200;48.144;11.424;2023-09-07T00:37:24;15.30;99.90
12276;DHT22;6200;48.144;11.424;2023-09-07T00:39:49;15.20;99.90
12276;DHT22;6200;48.144;11.424;2023-09-07T00:42:16;15.20;99.90
12276;DHT22;6200;48.144;11.424;2023-09-07T00:44:41;15.20;99.90
12276;DHT22;6200;48.144;11.424;2023-09-07T00:47:07;15.10;99.90
12276;DHT22;6200;48.144;11.424;2023-09-07T00:49:33;15.00;99.90
12276;DHT22;6200;48.144;11.424;2023-09-07T00:51:58;15.00;99.90
12276;DHT22;6200;48.144;11.424;2023-09-07T00:54:24;14.90;99.90
12276;DHT22;6200;48.144;11.424;2023-09-07T00:56:49;14.90;99.90
12276;DHT22;6200;48.144;11.424;2023-09-07T00:59:15;14.90;99.90
12276;DHT22;6200;48.144;11.424;2023-09-07T01:01:40;14.90;99.90
12276;DHT22;6200;48.144;11.424;2023-09-07T01:04:08;14.90;99.90
12276;DHT22;6200;48.144;11.424;2023-09-07T01:06:37;14.80;99.90
12276;DHT22;6200;48.144;11.424;2023-09-07T01:09:10;14.70;99.90
12276;DHT22;6200;48.144;11.424;2023-09-07T01:11:38;14.70;99.90
12276;DHT22;6200;48.144;11.424;2023-09-07T01:14:04;14.60;99.90
12276;DHT22;6200;48.144;11.424;2023-09-07T01:16:31;14.60;99.90
12276;DHT22;6200;48.144;11.424;2023-09-07T01:19:00;14.50;99.90
12276;DHT22;6200;48.144;11.424;2023-09-07T01:21:26;14.40;99.90
12276;DHT22;6200;48.144;11.424;2023-09-07T01:23:53;14.40;99.90
12276;DHT22;6200;48.144;11.424;2023-09-07T01:26:19;14.40;99.90
12276;DHT22;6200;48.144;11.424;2023-09-07T01:28:45;14.40;99.90
12276;DHT22;6200;48.144;11.424;2023-09-07T01:31:10;14.30;99.90
12276;DHT22;6200;48.144;11.424;2023-09-07T01:33:36;14.30;99.90
12276;DHT22;6200;48.144;11.424;2023-09-07T01:36:02;14.30;99.90
12276;DHT22;6200;48.144;11.424;2023-09-07T01:38:28;14.20;99.90
12276;DHT22;6200;48.144;11.424;2023-09-07T01:40:53;14.20;99.90
12276;DHT22;6200;48.144;11.424;2023-09-07T01:43:20;14.20;99.90
12276;DHT22;6200;48.144;11.424;2023-09-07T01:45:45;14.10;99.90
12276;DHT22;6200;48.144;11.424;2023-09-07T01:48:14;14.20;99.90
12276;DHT22;6200;48.144;11.424;2023-09-07T01:50:40;14.20;99.90
12276;DHT22;6200;48.144;11.424;2023-09-07T01:53:06;14.10;99.90
12276;DHT22;6200;48.144;11.424;2023-09-07T01:55:32;14.10;99.90
12276;DHT22;6200;48.144;11.424;2023-09-07T01:57:58;14.00;99.90
12276;DHT22;6200;48.144;11.424;2023-09-07T02:00:23;14.00;99.90
12276;DHT22;6200;48.144;11.424;2023-09-07T02:02:49;14.00;99.90
12276;DHT22;6200;48.144;11.424;2023-09-07T02:05:14;14.00;99.90
12276;DHT22;6200;48.144;11.424;2023-09-07T02:07:40;14.00;99.90
12276;DHT22;6200;48.144;11.424;2023-09-07T02:10:06;13.90;99.90
12276;DHT22;6200;48.144;11.424;2023-09-07T02:12:32;13.80;99.90
12276;DHT22;6200;48.144;11.424;2023-09-07T02:15:02;13.70;99.90
12276;DHT22;6200;48.144;11.424;2023-09-07T02:17:29;13.70;99.90
12276;DHT22;6200;48.144;11.424;2023-09-07T02:19:55;13.60;99.90
12276;DHT22;6200;48.144;11.424;2023-09-07T02:22:21;13.60;99.90
12276;DHT22;6200;48.144;11.424;2023-09-07T02:24:46;13.60;99.90
12276;DHT22;6200;48.144;11.424;2023-09-07T02:27:12;13.50;99.90
12276;DHT22;6200;48.144;11.424;2023-09-07T02:29:37;13.50;99.90
12276;DHT22;6200;48.144;11.424;2023-09-07T02:32:03;13.50;99.90
12276;DHT22;6200;48.144;11.424;2023-09-07T02:34:30;13.40;99.90
12276;DHT22;6200;48.144;11.424;2023-09-07T02:36:55;13.40;99.90
12276;DHT22;6200;48.144;11.424;2023-09-07T02:39:22;13.40;99.90
12276;DHT22;6200;48.144;11.424;2023-09-07T02:41:51;13.40;99.90
12276;DHT22;6200;48.144;11.424;2023-09-07T02:44:17;13.40;99.90
12276;DHT22;6200;48.144;11.424;2023-09-07T02:46:43;13.50;99.90
12276;DHT22;6200;48.144;11.424;2023-09-07T02:49:08;13.50;99.90
12276;DHT22;6200;48.144;11.424;2023-09-07T02:51:34;13.50;99.90
12276;DHT22;6200;48.144;11.424;2023-09-07T02:54:01;13.50;99.90
12276;DHT22;6200;48.144;11.424;2023-09-07T02:56:28;13.60;99.90
12276;DHT22;6200;48.144;11.424;2023-09-07T02:58:53;13.60;99.90
12276;DHT22;6200;48.144;11.424;2023-09-07T03:01:19;13.60;99.90
12276;DHT22;6200;48.144;11.424;2023-09-07T03:03:46;13.50;99.90
12276;DHT22;6200;48.144;11.424;2023-09-07T03:06:13;13.50;99.90
12276;DHT22;6200;48.144;11.424;2023-09-07T03:08:40;13.50;99.90
12276;DHT22;6200;48.144;11.424;2023-09-07T03:11:06;13.50;99.90
12276;DHT22;6200;48.144;11.424;2023-09-07T03:13:32;13.50;99.90
12276;DHT22;6200;48.144;11.424;2023-09-07T03:15:58;13.50;99.90
12276;DHT22;6200;48.144;11.424;2023-09-07T03:18:24;13.50;99.90
12276;DHT22;6200;48.144;11.424;2023-09-07T03:20:50;13.50;99.90
12276;DHT22;6200;48.144;11.424;2023-09-07T03:23:16;13.50;99.90
12276;DHT22;6200;48.144;11.424;2023-09-07T03:25:42;13.50;99.90
12276;DHT22;6200;48.144;11.424;2023-09-07T03:28:07;13.40;99.90
12276;DHT22;6200;48.144;11.424;2023-09-07T03:30:33;13.40;99.90
12276;DHT22;6200;48.144;11.424;2023-09-07T03:32:59;13.40;99.90
12276;DHT22;6200;48.144;11.424;2023-09-07T03:35:24;13.30;99.90
12276;DHT22;6200;48.144;11.424;2023-09-07T03:37:50;13.30;99.90
12276;DHT22;6200;48.144;11.424;2023-09-07T03:40:15;13.20;99.90
12276;DHT22;6200;48.144;11.424;2023-09-07T03:42:41;13.20;99.90
12276;DHT22;6200;48.144;11.424;2023-09-07T03:45:07;13.20;99.90
12276;DHT22;6200;48.144;11.424;2023-09-07T03:47:33;13.10;99.90
12276;DHT22;6200;48.144;11.424;2023-09-07T03:49:59;13.10;99.90
12276;DHT22;6200;48.144;11.424;2023-09-07T03:52:25;13.20;99.90
12276;DHT22;6200;48.144;11.424;2023-09-07T03:54:53;13.10;99.90
12276;DHT22;6200;48.144;11.424;2023-09-07T03:57:19;13.10;99.90
12276;DHT22;6200;48.144;11.424;2023-09-07T03:59:46;13.00;99.90
12276;DHT22;6200;48.144;11.424;2023-09-07T04:02:11;13.00;99.90
12276;DHT22;6200;48.144;11.424;2023-09-07T04:04:38;13.00;99.90
12276;DHT22;6200;48.144;11.424;2023-09-07T04:07:04;13.00;99.90
12276;DHT22;6200;48.144;11.424;2023-09-07T04:09:30;13.00;99.90
12276;DHT22;6200;48.144;11.424;2023-09-07T04:11:56;13.00;99.90
12276;DHT22;6200;48.144;11.424;2023-09-07T04:14:21;13.00;99.90
12276;DHT22;6200;48.144;11.424;2023-09-07T04:16:47;13.00;99.90
12276;DHT22;6200;48.144;11.424;2023-09-07T04:19:12;13.00;99.90
12276;DHT22;6200;48.144;11.424;2023-09-07T04:21:38;13.00;99.90
12276;DHT22;6200;48.144;11.424;2023-09-07T04:24:04;13.00;99.90
12276;DHT22;6200;48.144;11.424;2023-09-07T04:26:30;13.00;99.90
12276;DHT22;6200;48.144;11.424;2023-09-07T04:28:55;12.90;99.90
12276;DHT22;6200;48.144;11.424;2023-09-07T04:31:21;12.80;99.90
12276;DHT22;6200;48.144;11.424;2023-09-07T04:33:47;12.80;99.90
12276;DHT22;6200;48.144;11.424;2023-09-07T04:36:15;12.70;99.90
12276;DHT22;6200;48.144;11.424;2023-09-07T04:38:41;12.80;99.90
12276;DHT22;6200;48.144;11.424;2023-09-07T04:41:08;12.70;99.90
12276;DHT22;6200;48.144;11.424;2023-09-07T04:43:33;12.70;99.90
12276;DHT22;6200;48.144;11.424;2023-09-07T04:45:59;12.70;99.90
12276;DHT22;6200;48.144;11.424;2023-09-07T04:48:24;12.70;99.90
12276;DHT22;6200;48.144;11.424;2023-09-07T04:50:58;12.70;99.90
12276;DHT22;6200;48.144;11.424;2023-09-07T04:53:23;13.80;99.90
12276;DHT22;6200;48.144;11.424;2023-09-07T04:55:49;12.70;99.90
12276;DHT22;6200;48.144;11.424;2023-09-07T04:58:14;12.70;99.90
12276;DHT22;6200;48.144;11.424;2023-09-07T05:00:40;12.80;99.90
12276;DHT22;6200;48.144;11.424;2023-09-07T05:03:05;12.80;99.90
12276;DHT22;6200;48.144;11.424;2023-09-07T05:05:31;12.80;99.90
12276;DHT22;6200;48.144;11.424;2023-09-07T05:07:57;12.80;99.90
12276;DHT22;6200;48.144;11.424;2023-09-07T05:10:22;12.90;99.90
12276;DHT22;6200;48.144;11.424;2023-09-07T05:12:48;12.90;99.90
12276;DHT22;6200;48.144;11.424;2023-09-07T05:15:13;13.00;99.90
12276;DHT22;6200;48.144;11.424;2023-09-07T05:17:39;12.90;99.90
12276;DHT22;6200;48.144;11.424;2023-09-07T05:20:05;12.90;99.90
12276;DHT22;6200;48.144;11.424;2023-09-07T05:22:30;13.00;99.90
12276;DHT22;6200;48.144;11.424;2023-09-07T05:24:57;12.90;99.90
12276;DHT22;6200;48.144;11.424;2023-09-07T05:27:23;12.90;99.90
12276;DHT22;6200;48.144;11.424;2023-09-07T05:29:48;13.00;99.90
12276;DHT22;6200;48.144;11.424;2023-09-07T05:32:14;13.00;99.90
12276;DHT22;6200;48.144;11.424;2023-09-07T05:34:39;13.10;99.90
12276;DHT22;6200;48.144;11.424;2023-09-07T05:37:05;13.10;99.90
12276;DHT22;6200;48.144;11.424;2023-09-07T05:39:30;13.20;99.90
12276;DHT22;6200;48.144;11.424;2023-09-07T05:41:56;13.20;99.90
12276;DHT22;6200;48.144;11.424;2023-09-07T05:44:21;13.20;99.90
12276;DHT22;6200;48.144;11.424;2023-09-07T05:46:47;13.30;99.90
12276;DHT22;6200;48.144;11.424;2023-09-07T05:49:13;13.30;99.90
12276;DHT22;6200;48.144;11.424;2023-09-07T05:51:38;13.40;99.90
12276;DHT22;6200;48.144;11.424;2023-09-07T05:54:04;13.50;99.90
12276;DHT22;6200;48.144;11.424;2023-09-07T05:56:29;13.60;99.90
12276;DHT22;6200;48.144;11.424;2023-09-07T05:58:55;13.60;99.90
12276;DHT22;6200;48.144;11.424;2023-09-07T06:01:21;13.60;99.90
12276;DHT22;6200;48.144;11.424;2023-09-07T06:03:46;13.70;99.90
12276;DHT22;6200;48.144;11.424;2023-09-07T06:06:12;13.70;99.90
12276;DHT22;6200;48.144;11.424;2023-09-07T06:08:37;13.70;99.90
12276;DHT22;6200;48.144;11.424;2023-09-07T06:11:03;13.80;99.90
12276;DHT22;6200;48.144;11.424;2023-09-07T06:13:28;13.80;99.90
12276;DHT22;6200;48.144;11.424;2023-09-07T06:15:54;13.90;99.90
12276;DHT22;6200;48.144;11.424;2023-09-07T06:18:19;13.90;99.90
12276;DHT22;6200;48.144;11.424;2023-09-07T06:20:45;14.00;99.90
12276;DHT22;6200;48.144;11.424;2023-09-07T06:23:10;14.10;99.90
12276;DHT22;6200;48.144;11.424;2023-09-07T06:25:36;14.20;99.90
12276;DHT22;6200;48.144;11.424;2023-09-07T06:28:01;14.40;99.90
12276;DHT22;6200;48.144;11.424;2023-09-07T06:30:27;14.50;99.90
12276;DHT22;6200;48.144;11.424;2023-09-07T06:32:52;14.70;99.90
12276;DHT22;6200;48.144;11.424;2023-09-07T06:35:18;14.80;99.90
12276;DHT22;6200;48.144;11.424;2023-09-07T06:37:44;15.00;99.90
12276;DHT22;6200;48.144;11.424;2023-09-07T06:40:10;15.30;99.90
12276;DHT22;6200;48.144;11.424;2023-09-07T06:42:36;15.60;99.90
12276;DHT22;6200;48.144;11.424;2023-09-07T06:45:02;15.90;99.90
12276;DHT22;6200;48.144;11.424;2023-09-07T06:47:28;16.30;99.90
12276;DHT22;6200;48.144;11.424;2023-09-07T06:49:53;16.70;99.90
12276;DHT22;6200;48.144;11.424;2023-09-07T06:52:19;17.20;99.90
12276;DHT22;6200;48.144;11.424;2023-09-07T06:54:44;17.50;99.90
12276;DHT22;6200;48.144;11.424;2023-09-07T06:57:10;17.70;99.90
12276;DHT22;6200;48.144;11.424;2023-09-07T06:59:36;17.90;99.90
12276;DHT22;6200;48.144;11.424;2023-09-07T07:02:01;18.10;99.90
12276;DHT22;6200;48.144;11.424;2023-09-07T07:04:30;18.30;99.90
12276;DHT22;6200;48.144;11.424;2023-09-07T07:06:55;18.40;99.90
12276;DHT22;6200;48.144;11.424;2023-09-07T07:09:21;18.60;99.90
12276;DHT22;6200;48.144;11.424;2023-09-07T07:11:46;18.60;99.90
12276;DHT22;6200;48.144;11.424;2023-09-07T07:14:12;18.60;99.90
12276;DHT22;6200;48.144;11.424;2023-09-07T07:16:37;18.60;99.90
12276;DHT22;6200;48.144;11.424;2023-09-07T07:19:03;18.60;99.90
12276;DHT22;6200;48.144;11.424;2023-09-07T07:21:29;18.50;99.90
12276;DHT22;6200;48.144;11.424;2023-09-07T07:23:54;18.60;99.90
12276;DHT22;6200;48.144;11.424;2023-09-07T07:26:20;18.70;99.90
12276;DHT22;6200;48.144;11.424;2023-09-07T07:28:45;19.00;99.90
12276;DHT22;6200;48.144;11.424;2023-09-07T07:31:11;19.40;99.90
12276;DHT22;6200;48.144;11.424;2023-09-07T07:33:36;19.80;99.90
12276;DHT22;6200;48.144;11.424;2023-09-07T07:36:03;20.20;99.90
12276;DHT22;6200;48.144;11.424;2023-09-07T07:38:29;20.70;99.90
12276;DHT22;6200;48.144;11.424;2023-09-07T07:40:54;21.20;99.90
12276;DHT22;6200;48.144;11.424;2023-09-07T07:43:20;22.20;99.90
12276;DHT22;6200;48.144;11.424;2023-09-07T07:45:45;23.10;99.90
12276;DHT22;6200;48.144;11.424;2023-09-07T07:48:11;24.40;99.90
12276;DHT22;6200;48.144;11.424;2023-09-07T07:50:40;25.80;97.60
12276;DHT22;6200;48.144;11.424;2023-09-07T07:53:06;27.10;93.60
12276;DHT22;6200;48.144;11.424;2023-09-07T07:55:37;28.70;87.60
12276;DHT22;6200;48.144;11.424;2023-09-07T07:58:08;28.60;85.30
12276;DHT22;6200;48.144;11.424;2023-09-07T08:00:37;28.70;86.00
12276;DHT22;6200;48.144;11.424;2023-09-07T08:03:03;28.50;86.20
12276;DHT22;6200;48.144;11.424;2023-09-07T08:05:32;27.40;87.30
12276;DHT22;6200;48.144;11.424;2023-09-07T08:07:57;27.40;87.10
12276;DHT22;6200;48.144;11.424;2023-09-07T08:10:23;27.10;86.80
12276;DHT22;6200;48.144;11.424;2023-09-07T08:12:55;27.10;89.00
12276;DHT22;6200;48.144;11.424;2023-09-07T08:15:21;27.10;87.70
12276;DHT22;6200;48.144;11.424;2023-09-07T08:17:48;27.00;87.60
12276;DHT22;6200;48.144;11.424;2023-09-07T08:20:14;26.90;87.70
12276;DHT22;6200;48.144;11.424;2023-09-07T08:22:40;26.90;87.80
12276;DHT22;6200;48.144;11.424;2023-09-07T08:25:08;27.00;86.90
12276;DHT22;6200;48.144;11.424;2023-09-07T08:27:34;26.80;88.30
12276;DHT22;6200;48.144;11.424;2023-09-07T08:29:59;26.70;88.80
12276;DHT22;6200;48.144;11.424;2023-09-07T08:32:25;26.60;88.90
12276;DHT22;6200;48.144;11.424;2023-09-07T08:34:50;26.60;88.90
12276;DHT22;6200;48.144;11.424;2023-09-07T08:37:18;26.40;89.00
12276;DHT22;6200;48.144;11.424;2023-09-07T08:39:46;26.40;89.70
12276;DHT22;6200;48.144;11.424;2023-09-07T08:42:11;26.20;89.90
12276;DHT22;6200;48.144;11.424;2023-09-07T08:44:37;26.10;90.20
12276;DHT22;6200;48.144;11.424;2023-09-07T08:47:05;25.80;90.40
12276;DHT22;6200;48.144;11.424;2023-09-07T08:49:31;25.90;90.40
12276;DHT22;6200;48.144;11.424;2023-09-07T08:51:59;25.90;90.90
12276;DHT22;6200;48.144;11.424;2023-09-07T08:54:26;25.80;90.70
12276;DHT22;6200;48.144;11.424;2023-09-07T08:56:52;26.00;90.80
12276;DHT22;6200;48.144;11.424;2023-09-07T08:59:17;26.00;90.30
12276;DHT22;6200;48.144;11.424;2023-09-07T09:01:43;26.20;91.20
12276;DHT22;6200;48.144;11.424;2023-09-07T09:04:09;26.50;90.30
12276;DHT22;6200;48.144;11.424;2023-09-07T09:06:34;26.70;88.80
12276;DHT22;6200;48.144;11.424;2023-09-07T09:09:00;26.80;89.90
12276;DHT22;6200;48.144;11.424;2023-09-07T09:11:26;27.20;87.10
12276;DHT22;6200;48.144;11.424;2023-09-07T09:13:53;27.60;86.20
12276;DHT22;6200;48.144;11.424;2023-09-07T09:16:20;29.50;83.80
12276;DHT22;6200;48.144;11.424;2023-09-07T09:18:53;31.30;80.60
12276;DHT22;6200;48.144;11.424;2023-09-07T09:21:20;31.90;76.90
12276;DHT22;6200;48.144;11.424;2023-09-07T09:23:54;32.50;73.60
12276;DHT22;6200;48.144;11.424;2023-09-07T09:26:20;33.20;70.90
12276;DHT22;6200;48.144;11.424;2023-09-07T09:28:46;32.40;70.20
12276;DHT22;6200;48.144;11.424;2023-09-07T09:31:13;32.00;70.90
12276;DHT22;6200;48.144;11.424;2023-09-07T09:33:40;32.70;70.40
12276;DHT22;6200;48.144;11.424;2023-09-07T09:36:06;34.30;68.80
12276;DHT22;6200;48.144;11.424;2023-09-07T09:38:33;35.40;65.60
12276;DHT22;6200;48.144;11.424;2023-09-07T09:40:59;35.80;63.60
12276;DHT22;6200;48.144;11.424;2023-09-07T09:43:25;36.40;63.30
12276;DHT22;6200;48.144;11.424;2023-09-07T09:45:52;37.50;60.10
12276;DHT22;6200;48.144;11.424;2023-09-07T09:48:21;38.40;58.70
12276;DHT22;6200;48.144;11.424;2023-09-07T09:50:47;38.30;56.60
12276;DHT22;6200;48.144;11.424;2023-09-07T09:53:17;39.10;55.60
12276;DHT22;6200;48.144;11.424;2023-09-07T09:55:50;39.50;54.10
12276;DHT22;6200;48.144;11.424;2023-09-07T09:58:17;40.00;53.90
12276;DHT22;6200;48.144;11.424;2023-09-07T10:00:48;39.70;53.30
12276;DHT22;6200;48.144;11.424;2023-09-07T10:03:20;41.00;51.70
12276;DHT22;6200;48.144;11.424;2023-09-07T10:05:49;41.10;51.30
12276;DHT22;6200;48.144;11.424;2023-09-07T10:08:17;40.70;50.90
12276;DHT22;6200;48.144;11.424;2023-09-07T10:10:46;41.00;50.40
12276;DHT22;6200;48.144;11.424;2023-09-07T10:13:15;41.60;50.50
12276;DHT22;6200;48.144;11.424;2023-09-07T10:15:42;41.40;50.00
12276;DHT22;6200;48.144;11.424;2023-09-07T10:18:14;42.40;48.80
12276;DHT22;6200;48.144;11.424;2023-09-07T10:23:13;41.60;47.80
12276;DHT22;6200;48.144;11.424;2023-09-07T10:25:39;39.40;50.10
12276;DHT22;6200;48.144;11.424;2023-09-07T10:28:05;37.50;52.00
12276;DHT22;6200;48.144;11.424;2023-09-07T10:30:31;37.60;53.80
12276;DHT22;6200;48.144;11.424;2023-09-07T10:32:58;38.70;53.20
12276;DHT22;6200;48.144;11.424;2023-09-07T10:35:23;40.20;51.50
12276;DHT22;6200;48.144;11.424;2023-09-07T10:37:51;41.10;50.30
12276;DHT22;6200;48.144;11.424;2023-09-07T10:40:21;41.60;47.50
12276;DHT22;6200;48.144;11.424;2023-09-07T10:42:47;41.70;48.10
12276;DHT22;6200;48.144;11.424;2023-09-07T10:45:14;42.60;47.20
12276;DHT22;6200;48.144;11.424;2023-09-07T10:47:42;42.40;47.40
12276;DHT22;6200;48.144;11.424;2023-09-07T10:50:10;42.80;46.80
12276;DHT22;6200;48.144;11.424;2023-09-07T10:52:36;43.70;45.20
12276;DHT22;6200;48.144;11.424;2023-09-07T10:55:02;43.80;44.60
12276;DHT22;6200;48.144;11.424;2023-09-07T10:57:27;43.90;44.50
12276;DHT22;6200;48.144;11.424;2023-09-07T10:59:53;44.10;44.30
12276;DHT22;6200;48.144;11.424;2023-09-07T11:02:20;44.10;44.30
12276;DHT22;6200;48.144;11.424;2023-09-07T11:04:46;43.70;44.10
12276;DHT22;6200;48.144;11.424;2023-09-07T11:07:12;43.90;44.70
12276;DHT22;6200;48.144;11.424;2023-09-07T11:09:41;44.00;44.80
12276;DHT22;6200;48.144;11.424;2023-09-07T11:12:07;43.90;43.70
12276;DHT22;6200;48.144;11.424;2023-09-07T11:14:33;43.80;44.00
12276;DHT22;6200;48.144;11.424;2023-09-07T11:17:00;43.00;44.70
12276;DHT22;6200;48.144;11.424;2023-09-07T11:19:26;42.90;45.00
12276;DHT22;6200;48.144;11.424;2023-09-07T11:21:53;43.80;45.00
12276;DHT22;6200;48.144;11.424;2023-09-07T11:24:19;43.70;44.00
12276;DHT22;6200;48.144;11.424;2023-09-07T11:26:46;41.90;44.50
12276;DHT22;6200;48.144;11.424;2023-09-07T11:29:16;39.30;48.00
12276;DHT22;6200;48.144;11.424;2023-09-07T11:31:43;37.30;50.70
12276;DHT22;6200;48.144;11.424;2023-09-07T11:34:09;39.40;49.60
12276;DHT22;6200;48.144;11.424;2023-09-07T11:36:36;41.90;46.30
12276;DHT22;6200;48.144;11.424;2023-09-07T11:39:01;42.20;46.10
12276;DHT22;6200;48.144;11.424;2023-09-07T11:41:32;41.60;45.60
12276;DHT22;6200;48.144;11.424;2023-09-07T11:43:58;42.70;45.20
12276;DHT22;6200;48.144;11.424;2023-09-07T11:46:23;43.20;44.50
12276;DHT22;6200;48.144;11.424;2023-09-07T11:48:48;44.60;44.00
12276;DHT22;6200;48.144;11.424;2023-09-07T11:51:14;44.90;42.50
12276;DHT22;6200;48.144;11.424;2023-09-07T11:53:40;44.50;42.50
12276;DHT22;6200;48.144;11.424;2023-09-07T11:56:05;43.80;43.20
12276;DHT22;6200;48.144;11.424;2023-09-07T11:58:31;44.50;42.60
12276;DHT22;6200;48.144;11.424;2023-09-07T12:00:56;44.90;42.50
12276;DHT22;6200;48.144;11.424;2023-09-07T12:03:22;45.20;41.60
12276;DHT22;6200;48.144;11.424;2023-09-07T12:05:47;45.10;42.10
12276;DHT22;6200;48.144;11.424;2023-09-07T12:08:13;44.90;41.70
12276;DHT22;6200;48.144;11.424;2023-09-07T12:10:39;45.00;41.80
12276;DHT22;6200;48.144;11.424;2023-09-07T12:13:05;45.50;42.30
12276;DHT22;6200;48.144;11.424;2023-09-07T12:15:30;44.60;41.80
12276;DHT22;6200;48.144;11.424;2023-09-07T12:17:56;44.10;42.30
12276;DHT22;6200;48.144;11.424;2023-09-07T12:20:22;43.60;43.40
12276;DHT22;6200;48.144;11.424;2023-09-07T12:22:48;43.90;43.20
12276;DHT22;6200;48.144;11.424;2023-09-07T12:25:14;42.80;43.30
12276;DHT22;6200;48.144;11.424;2023-09-07T12:27:41;39.80;45.90
12276;DHT22;6200;48.144;11.424;2023-09-07T12:30:09;37.30;49.20
12276;DHT22;6200;48.144;11.424;2023-09-07T12:32:38;35.70;52.20
12276;DHT22;6200;48.144;11.424;2023-09-07T12:35:04;37.40;51.80
12276;DHT22;6200;48.144;11.424;2023-09-07T12:37:35;36.90;51.30
12276;DHT22;6200;48.144;11.424;2023-09-07T12:40:01;36.70;51.10
12276;DHT22;6200;48.144;11.424;2023-09-07T12:42:26;36.40;50.60
12276;DHT22;6200;48.144;11.424;2023-09-07T12:44:52;36.00;51.60
12276;DHT22;6200;48.144;11.424;2023-09-07T12:47:17;35.60;52.40
12276;DHT22;6200;48.144;11.424;2023-09-07T12:49:43;35.50;52.90
12276;DHT22;6200;48.144;11.424;2023-09-07T12:52:08;34.40;55.00
12276;DHT22;6200;48.144;11.424;2023-09-07T12:54:36;34.40;54.90
12276;DHT22;6200;48.144;11.424;2023-09-07T12:57:02;33.90;56.40
12276;DHT22;6200;48.144;11.424;2023-09-07T12:59:29;34.10;55.80
12276;DHT22;6200;48.144;11.424;2023-09-07T13:01:54;34.10;55.60
12276;DHT22;6200;48.144;11.424;2023-09-07T13:04:21;34.30;54.90
12276;DHT22;6200;48.144;11.424;2023-09-07T13:06:47;34.40;55.40
12276;DHT22;6200;48.144;11.424;2023-09-07T13:09:12;34.10;55.50
12276;DHT22;6200;48.144;11.424;2023-09-07T13:11:38;33.70;56.60
12276;DHT22;6200;48.144;11.424;2023-09-07T13:14:04;33.50;56.80
12276;DHT22;6200;48.144;11.424;2023-09-07T13:16:30;33.10;57.20
12276;DHT22;6200;48.144;11.424;2023-09-07T13:18:58;32.80;58.10
12276;DHT22;6200;48.144;11.424;2023-09-07T13:21:23;32.90;57.50
12276;DHT22;6200;48.144;11.424;2023-09-07T13:23:49;32.70;58.00
12276;DHT22;6200;48.144;11.424;2023-09-07T13:26:14;32.80;57.80
12276;DHT22;6200;48.144;11.424;2023-09-07T13:28:40;32.80;58.00
12276;DHT22;6200;48.144;11.424;2023-09-07T13:31:06;32.60;59.00
12276;DHT22;6200;48.144;11.424;2023-09-07T13:33:32;32.30;58.60
12276;DHT22;6200;48.144;11.424;2023-09-07T13:35:57;31.50;59.20
12276;DHT22;6200;48.144;11.424;2023-09-07T13:38:23;31.50;60.10
12276;DHT22;6200;48.144;11.424;2023-09-07T13:40:48;31.90;59.10
12276;DHT22;6200;48.144;11.424;2023-09-07T13:43:14;32.10;58.60
12276;DHT22;6200;48.144;11.424;2023-09-07T13:45:40;31.60;58.40
12276;DHT22;6200;48.144;11.424;2023-09-07T13:48:06;31.80;59.80
12276;DHT22;6200;48.144;11.424;2023-09-07T13:50:31;32.00;58.90
12276;DHT22;6200;48.144;11.424;2023-09-07T13:52:57;31.90;59.40
12276;DHT22;6200;48.144;11.424;2023-09-07T13:55:22;31.80;58.10
12276;DHT22;6200;48.144;11.424;2023-09-07T13:57:48;31.60;59.20
12276;DHT22;6200;48.144;11.424;2023-09-07T14:00:14;31.40;58.80
12276;DHT22;6200;48.144;11.424;2023-09-07T14:02:40;31.30;59.20
12276;DHT22;6200;48.144;11.424;2023-09-07T14:05:06;31.20;59.50
12276;DHT22;6200;48.144;11.424;2023-09-07T14:07:31;31.10;60.60
12276;DHT22;6200;48.144;11.424;2023-09-07T14:09:57;30.80;60.30
12276;DHT22;6200;48.144;11.424;2023-09-07T14:12:22;30.50;59.40
12276;DHT22;6200;48.144;11.424;2023-09-07T14:14:49;30.30;60.10
12276;DHT22;6200;48.144;11.424;2023-09-07T14:17:14;30.00;60.10
12276;DHT22;6200;48.144;11.424;2023-09-07T14:19:40;29.90;61.50
12276;DHT22;6200;48.144;11.424;2023-09-07T14:22:05;29.70;61.60
12276;DHT22;6200;48.144;11.424;2023-09-07T14:24:31;29.60;61.40
12276;DHT22;6200;48.144;11.424;2023-09-07T14:26:56;29.40;58.70
12276;DHT22;6200;48.144;11.424;2023-09-07T14:29:22;29.30;59.10
12276;DHT22;6200;48.144;11.424;2023-09-07T14:31:48;29.20;60.60
12276;DHT22;6200;48.144;11.424;2023-09-07T14:34:13;29.10;61.00
12276;DHT22;6200;48.144;11.424;2023-09-07T14:36:39;29.00;62.00
12276;DHT22;6200;48.144;11.424;2023-09-07T14:39:08;29.10;62.00
12276;DHT22;6200;48.144;11.424;2023-09-07T14:41:35;29.00;59.80
12276;DHT22;6200;48.144;11.424;2023-09-07T14:44:01;28.90;60.70
12276;DHT22;6200;48.144;11.424;2023-09-07T14:46:26;28.90;60.70
12276;DHT22;6200;48.144;11.424;2023-09-07T14:48:52;28.80;61.50
12276;DHT22;6200;48.144;11.424;2023-09-07T14:51:18;28.80;61.70
12276;DHT22;6200;48.144;11.424;2023-09-07T14:53:43;28.90;60.60
12276;DHT22;6200;48.144;11.424;2023-09-07T14:56:09;28.70;60.20
12276;DHT22;6200;48.144;11.424;2023-09-07T14:58:35;28.70;61.60
12276;DHT22;6200;48.144;11.424;2023-09-07T15:01:01;28.60;62.00
12276;DHT22;6200;48.144;11.424;2023-09-07T15:03:26;28.50;62.60
12276;DHT22;6200;48.144;11.424;2023-09-07T15:05:52;28.50;62.50
12276;DHT22;6200;48.144;11.424;2023-09-07T15:08:17;28.40;63.60
12276;DHT22;6200;48.144;11.424;2023-09-07T15:10:43;28.30;63.30
12276;DHT22;6200;48.144;11.424;2023-09-07T15:13:09;28.20;63.60
12276;DHT22;6200;48.144;11.424;2023-09-07T15:15:35;28.10;64.20
12276;DHT22;6200;48.144;11.424;2023-09-07T15:18:03;27.90;64.50
12276;DHT22;6200;48.144;11.424;2023-09-07T15:20:29;27.80;64.90
12276;DHT22;6200;48.144;11.424;2023-09-07T15:22:55;27.80;65.60
12276;DHT22;6200;48.144;11.424;2023-09-07T15:25:20;27.70;66.40